Rifle, CO

11:11 PM MST on March 01, 2015 (GMT -0700)
Garfield County Regional | Change Station
CLOSE
Current Station
Airport
Location: Rifle,
Elevation: 5541 ft
Nearby Weather Stations

Elev 5541 ft 39.52 °N, 107.73 °W | Updated 18 minutes ago

Overcast
Overcast
37 °F
Feels Like 33 °F
N
5
Wind Variable Wind from North

Today
High -- | Low -- °F
--% Chance of Precip.
Yesterday
High -- | Low -- °F
Precip. -- in
6:44 AM 6:03 PM
Waxing Gibbous, 89% visible
Pressure 30.04 in
Visibility 10.0 miles
Clouds Scattered Clouds 2000 ft
Scattered Clouds 2600 ft
Overcast 3300 ft
Windchill 33 °F
Dew Point 31 °F
Humidity 79%
Rainfall 0.00 in
Snow Depth Not available.
UV 0 out of 12
Pollen 1.80 out of 12
Air Quality Not available.
Flu Activity Not available.
METAR KRIL 020553Z AUTO 36004KT 10SM -RA SCT020 SCT026 OVC033 03/M01 A3005 RMK AO2 RAB10 SLP173 P0000 60000 T00281006 10067 20028 56003

More Conditions Fewer Conditions

Pressure 30.04 in
Visibility 10.0 miles
Clouds Scattered Clouds 2000 ft
Scattered Clouds 2600 ft
Overcast 3300 ft
Windchill 33 °F
Dew Point 31 °F
Humidity 79%
Rainfall 0.00 in
Snow Depth Not available.
UV 0 out of 12
Pollen 1.80 out of 12
Air Quality Not available.
Flu Activity Not available.
METAR KRIL 020553Z AUTO 36004KT 10SM -RA SCT020 SCT026 OVC033 03/M01 A3005 RMK AO2 RAB10 SLP173 P0000 60000 T00281006 10067 20028 56003

More Conditions Fewer Conditions

10-Day Weather Forecast

Almanac

Astronomy

Mar. 01, 2015 Rise Set
Actual Time
Civil Twilight
Nautical Twilight
Astronomical Twilight
Moon
Length of Visible Light
Length of Day
Tomorrow will be .
, % of the Moon is Illuminated

Today's Extremes

State Highs State Lows

Community

WunderPhotos

Upload Photos

1,801,738 photos uploaded!

WunderBlogs® & News

Nearby

Air Quality

  Air Quality AQ Index Pollutant
Not available.

Snow Depth

Station Depth Elevation

Earthquake Activity

City Distance Mag. Time & Date
Minimum magnitude displayed is 2.5.

Coastal Water Temperatures

Place Temperature

Nearby Weather Stations